Latest METARs, TAFs and NOTAMs for LHBP


---------------------------------------------------------------------------
	(OBSERVATIONS)
LHBP 231430Z 25005KT 210V320 CAVOK 23/06 Q1010 NOSIG=
LHBP 231400Z 25005KT 190V310 CAVOK 23/06 Q1010 NOSIG=
LHBP 231330Z 28007KT 250V310 CAVOK 23/07 Q1010 NOSIG=
LHBP 231300Z VRB03KT CAVOK 23/06 Q1010 NOSIG=
LHBP 231230Z 27008KT 220V320 CAVOK 22/06 Q1011 NOSIG=
LHBP 231200Z VRB06KT CAVOK 22/05 Q1011 NOSIG=
LHBP 231130Z 29004KT 180V330 CAVOK 24/06 Q1011 NOSIG=
---------------------------------------------------------------------------
	(FC)
Sorry, FC For LHBP Not Found
---------------------------------------------------------------------------
	(TERMINAL AREA FORECAST)
LHBP 231115Z 2312/2412 VRB03KT CAVOK
    BECMG 2319/2321 12007KT
    BECMG 2321/2324 09008KT
    TEMPO 2402/2410 VRB10G22KT 5000 SHRA TSRA SCT030CB BKN060=
---------------------------------------------------------------------------
	(NOTAMS)


Sorry, no NOTAM available for LHBP
---------------------------------------------------------------------------